createdAt,value
2019-03-28T00:01:15.233Z,25.20
2019-03-28T00:03:44.647Z,26.27
2019-03-28T00:06:13.000Z,26.93
2019-03-28T00:08:41.384Z,25.90
2019-03-28T00:11:09.826Z,27.90
2019-03-28T00:13:38.178Z,26.45
2019-03-28T00:16:06.597Z,27.37
2019-03-28T00:18:35.001Z,25.95
2019-03-28T00:21:03.405Z,26.37
2019-03-28T00:23:43.426Z,27.42
2019-03-28T00:26:11.843Z,25.95
2019-03-28T00:28:44.389Z,27.67
2019-03-28T00:31:12.568Z,26.35
2019-03-28T00:33:40.946Z,27.07
2019-03-28T00:36:09.331Z,26.87
2019-03-28T00:38:40.272Z,26.85
2019-03-28T00:41:08.660Z,27.43
2019-03-28T00:43:37.082Z,28.35
2019-03-28T00:46:05.473Z,26.90
2019-03-28T00:48:33.872Z,25.97
2019-03-28T00:51:02.249Z,26.33
2019-03-28T00:53:31.724Z,27.00
2019-03-28T00:56:00.199Z,26.97
2019-03-28T00:58:30.990Z,26.77
2019-03-28T01:00:59.412Z,25.77
2019-03-28T01:03:28.960Z,26.80
2019-03-28T01:05:57.373Z,25.95
2019-03-28T01:08:25.784Z,26.90
2019-03-28T01:10:57.397Z,25.10
2019-03-28T01:13:26.855Z,26.40
2019-03-28T01:16:00.029Z,25.57
2019-03-28T01:18:30.457Z,24.90
2019-03-28T01:20:58.872Z,27.27
2019-03-28T01:23:27.276Z,25.45
2019-03-28T01:25:55.667Z,26.02
2019-03-28T01:28:24.100Z,26.87
2019-03-28T01:30:52.516Z,26.07
2019-03-28T01:33:23.354Z,26.25
2019-03-28T01:35:54.826Z,24.47
2019-03-28T01:38:23.233Z,24.85
2019-03-28T01:40:51.612Z,25.27
2019-03-28T01:43:20.044Z,24.90
2019-03-28T01:45:50.930Z,25.43
2019-03-28T01:48:21.877Z,24.85
2019-03-28T01:50:51.287Z,24.60
2019-03-28T01:53:19.698Z,24.18
2019-03-28T01:55:49.100Z,25.00
2019-03-28T01:58:20.152Z,26.42
2019-03-28T02:00:48.608Z,25.87
2019-03-28T02:03:17.010Z,25.20
2019-03-28T02:05:45.418Z,26.07
2019-03-28T02:08:13.828Z,26.75
2019-03-28T02:10:42.218Z,26.45
2019-03-28T02:13:14.342Z,25.77
2019-03-28T02:15:45.039Z,27.22
2019-03-28T02:18:13.737Z,26.77
2019-03-28T02:20:42.125Z,28.15
2019-03-28T02:23:10.633Z,27.98
2019-03-28T02:25:39.002Z,27.45
2019-03-28T02:28:07.438Z,27.73
2019-03-28T02:30:35.894Z,27.13
2019-03-28T02:33:04.318Z,27.02
2019-03-28T02:35:36.456Z,27.22
2019-03-28T02:38:06.959Z,25.85
2019-03-28T02:40:37.498Z,26.07
2019-03-28T02:43:05.928Z,25.82
2019-03-28T02:45:34.301Z,26.02
2019-03-28T02:48:02.685Z,26.97
2019-03-28T02:50:31.104Z,25.55
2019-03-28T02:52:59.500Z,26.80
2019-03-28T02:55:34.564Z,26.90
2019-03-28T02:58:03.042Z,28.25
2019-03-28T03:00:31.418Z,26.68
2019-03-28T03:02:59.818Z,26.45
2019-03-28T03:05:28.347Z,27.48
2019-03-28T03:07:56.747Z,26.45
2019-03-28T03:10:25.167Z,25.23
2019-03-28T03:12:57.081Z,25.82
2019-03-28T03:15:25.472Z,26.70
2019-03-28T03:17:56.828Z,25.32
2019-03-28T03:20:25.233Z,25.70
2019-03-28T03:22:54.538Z,24.63
2019-03-28T03:25:23.028Z,24.32
2019-03-28T03:27:58.245Z,24.52
2019-03-28T03:30:21.580Z,24.50
2019-03-28T03:32:49.995Z,24.23
2019-03-28T03:35:18.378Z,24.65
2019-03-28T03:37:46.802Z,23.77
2019-03-28T03:40:15.553Z,25.08
2019-03-28T03:42:43.966Z,25.95
2019-03-28T03:45:12.456Z,24.20
2019-03-28T03:47:41.895Z,23.62
2019-03-28T03:50:12.113Z,23.10
2019-03-28T03:52:41.600Z,22.45
2019-03-28T03:55:13.862Z,23.07
2019-03-28T03:57:42.246Z,23.77
2019-03-28T04:00:11.134Z,24.37
2019-03-28T04:02:39.583Z,24.15
2019-03-28T04:05:08.211Z,23.75
2019-03-28T04:07:36.615Z,23.52
2019-03-28T04:10:09.270Z,23.05
2019-03-28T04:15:06.382Z,21.90
2019-03-28T04:17:34.743Z,23.95
2019-03-28T04:20:04.592Z,25.32
2019-03-28T04:22:37.110Z,23.40
2019-03-28T04:25:06.866Z,23.62
2019-03-28T04:27:35.268Z,23.05
2019-03-28T04:30:09.925Z,22.55
2019-03-28T04:32:35.964Z,23.55
2019-03-28T04:35:07.073Z,23.80
2019-03-28T04:37:35.476Z,22.62
2019-03-28T04:40:06.361Z,24.37
2019-03-28T04:42:34.935Z,23.55
2019-03-28T04:45:05.565Z,24.50
2019-03-28T04:47:34.307Z,22.87
2019-03-28T04:50:02.631Z,23.40
2019-03-28T04:52:32.023Z,23.95
2019-03-28T04:55:00.598Z,22.22
2019-03-28T04:57:29.576Z,21.77
2019-03-28T04:59:57.977Z,21.00
2019-03-28T05:02:26.387Z,21.52
2019-03-28T05:04:54.777Z,20.57
2019-03-28T05:07:25.925Z,23.98
2019-03-28T05:09:54.315Z,22.40
2019-03-28T05:12:22.735Z,20.70
2019-03-28T05:14:51.121Z,21.62
2019-03-28T05:17:19.542Z,20.45
2019-03-28T05:20:04.861Z,19.53
2019-03-28T05:22:30.438Z,21.33
2019-03-28T05:25:01.358Z,20.43
2019-03-28T05:27:30.761Z,20.30
2019-03-28T05:30:00.990Z,20.50
2019-03-28T05:32:29.385Z,22.35
2019-03-28T05:34:57.773Z,18.95
2019-03-28T05:37:26.195Z,20.75
2019-03-28T05:39:54.580Z,20.10
2019-03-28T05:42:25.652Z,19.80
2019-03-28T05:44:57.279Z,22.22
2019-03-28T05:47:26.050Z,21.90
2019-03-28T05:49:54.467Z,21.87
2019-03-28T05:52:22.849Z,20.92
2019-03-28T05:54:51.780Z,22.42
2019-03-28T05:57:20.250Z,22.67
2019-03-28T05:59:48.706Z,22.60
2019-03-28T06:02:17.256Z,22.65
2019-03-28T06:04:45.661Z,22.67
2019-03-28T06:07:14.049Z,23.52
2019-03-28T06:09:45.629Z,21.68
2019-03-28T06:12:13.601Z,23.32
2019-03-28T06:14:42.567Z,21.47
2019-03-28T06:17:12.017Z,23.00
2019-03-28T06:19:40.410Z,21.95
2019-03-28T06:22:08.816Z,20.50
2019-03-28T06:24:37.247Z,23.47
2019-03-28T06:27:08.313Z,21.00
2019-03-28T06:29:36.718Z,24.23
2019-03-28T06:32:07.254Z,24.20
2019-03-28T06:34:35.987Z,24.87
2019-03-28T06:37:04.385Z,23.83
2019-03-28T06:39:36.467Z,24.67
2019-03-28T06:42:02.889Z,24.20
2019-03-28T06:44:31.351Z,24.92
2019-03-28T06:46:59.779Z,24.32
2019-03-28T06:49:28.164Z,24.43
2019-03-28T08:58:29.044Z,23.98
2019-03-28T09:01:08.668Z,17.02
2019-03-28T09:03:37.070Z,17.07
2019-03-28T09:06:05.537Z,17.57
2019-03-28T09:08:34.016Z,17.27
2019-03-28T09:11:02.423Z,20.90
2019-03-28T09:13:30.836Z,18.50
2019-03-28T09:15:59.234Z,18.87
2019-03-28T09:18:27.646Z,18.95
2019-03-28T09:20:56.061Z,18.07
2019-03-28T09:23:24.459Z,16.73
2019-03-28T09:25:52.864Z,17.60
2019-03-28T09:28:22.064Z,16.27
2019-03-28T09:30:50.464Z,17.37
2019-03-28T09:33:19.059Z,15.85
2019-03-28T09:35:50.666Z,15.58
2019-03-28T09:38:19.076Z,15.50
2019-03-28T09:40:47.472Z,15.28
2019-03-28T09:43:17.578Z,15.53
2019-03-28T09:45:46.046Z,13.93
2019-03-28T09:48:15.375Z,13.95
2019-03-28T09:50:43.769Z,14.33
2019-03-28T09:53:14.804Z,13.03
2019-03-28T09:55:43.205Z,14.27
2019-03-28T09:58:14.989Z,13.18
2019-03-28T10:03:15.145Z,13.68
2019-03-28T10:05:43.948Z,14.15
2019-03-28T10:08:12.356Z,13.88
2019-03-28T10:10:40.779Z,12.90
2019-03-28T10:13:09.193Z,14.30
2019-03-28T10:15:41.341Z,12.73
2019-03-28T10:18:09.765Z,12.95
2019-03-28T10:20:38.151Z,13.28
2019-03-28T10:23:12.516Z,13.20
2019-03-28T10:27:14.235Z,12.18
2019-03-28T10:29:42.614Z,11.07
2019-03-28T10:32:11.035Z,11.50
2019-03-28T10:34:42.280Z,10.73
2019-03-28T10:37:10.691Z,11.33
2019-03-28T10:39:39.091Z,11.50
2019-03-28T10:42:07.575Z,10.93
2019-03-28T10:45:57.023Z,10.35
2019-03-28T10:48:25.435Z,11.85
2019-03-28T10:50:53.836Z,11.28
2019-03-28T10:55:10.319Z,10.82
2019-03-28T10:57:38.732Z,11.10
2019-03-28T11:00:08.548Z,12.20
2019-03-28T11:03:15.759Z,10.30
2019-03-28T11:07:11.824Z,10.40
2019-03-28T11:09:42.615Z,10.97
2019-03-28T11:12:11.008Z,10.63
2019-03-28T11:14:39.424Z,10.90
2019-03-28T11:17:07.830Z,10.55
2019-03-28T11:19:36.228Z,9.27
2019-03-28T11:22:07.157Z,10.15
2019-03-28T11:24:39.327Z,9.83
2019-03-28T11:29:38.861Z,8.70
2019-03-28T11:35:36.842Z,8.38
2019-03-28T11:38:11.924Z,9.53
2019-03-28T11:42:38.142Z,8.48
2019-03-28T11:46:59.595Z,8.85
2019-03-28T11:52:15.255Z,8.98
2019-03-28T11:57:37.571Z,7.83
2019-03-28T12:00:15.095Z,8.53
2019-03-28T12:02:57.899Z,8.40
2019-03-28T12:05:26.514Z,7.87
2019-03-28T12:08:01.267Z,7.03
2019-03-28T12:12:29.464Z,7.22
2019-03-28T12:17:21.956Z,7.42
2019-03-28T12:23:07.487Z,7.03
2019-03-28T12:25:47.415Z,5.90
2019-03-28T12:30:36.342Z,6.05
2019-03-28T12:35:50.224Z,5.10
2019-03-28T12:41:04.614Z,5.75
2019-03-28T12:43:33.003Z,3.92
2019-03-28T12:46:10.512Z,4.03
2019-03-28T12:48:38.888Z,4.25
2019-03-28T12:57:48.587Z,3.83
2019-03-28T13:00:24.285Z,2.80
2019-03-28T13:03:44.792Z,2.83
2019-03-28T13:06:02.627Z,2.27
2019-03-28T13:08:31.017Z,2.00
2019-03-28T13:11:00.557Z,2.33
2019-03-28T13:13:29.481Z,2.33
2019-03-28T13:15:58.050Z,2.52
2019-03-28T13:34:36.724Z,2.25
2019-03-28T13:37:05.114Z,6.53
2019-03-28T13:39:33.502Z,11.03
2019-03-28T13:42:01.916Z,18.67
2019-03-28T13:44:30.485Z,22.93
2019-03-28T13:46:58.975Z,23.45
2019-03-28T13:49:27.385Z,15.65
2019-03-28T13:51:55.775Z,11.70
2019-03-28T13:54:24.178Z,8.90
2019-03-28T13:56:52.586Z,8.70
2019-03-28T13:59:20.962Z,7.47
2019-03-28T14:01:51.918Z,7.62
2019-03-28T15:02:07.627Z,8.10
2019-03-28T15:04:36.007Z,7.05
2019-03-28T15:07:07.203Z,7.70
2019-03-28T15:09:35.617Z,7.92
2019-03-28T15:12:08.261Z,7.45
2019-03-28T15:14:42.238Z,7.93
2019-03-28T15:17:12.393Z,6.53
2019-03-28T15:19:44.837Z,6.67
2019-03-28T15:24:52.260Z,8.53
2019-03-28T15:29:02.561Z,6.80
2019-03-28T15:31:40.016Z,6.97
2019-03-28T15:35:38.506Z,7.60
2019-03-28T18:35:05.568Z,9.20
2019-03-28T18:49:15.535Z,9.93
